LFPO/ORY METAR and TAF weather

Enter ICAO airport designator
Station Type Date Time Source
LFPO METAR 2022/01/26 08:30 UTC NOAA

LFPO 260830Z 17003KT 6000 OVC011 01/M00 Q1035 NOSIG


Station Type Date Time Source
LFPO Decoded METAR 2022/01/26 08:30 UTC NOAA

Paris-Orly, France (LFPO) 48-44N 002-24E 96M
Jan 26, 2022 - 03:30 AM EST / 2022.01.26 0830 UTC
Wind: from the S (170 degrees) at 3 MPH (3 KT):0
Visibility: 3 mile(s):0
Sky conditions: overcast
Temperature: 33 F (1 C)
Dew Point: 32 F (0 C)
Relative Humidity: 93%
Pressure (altimeter): 30.56 in. Hg (1035 hPa)
ob: LFPO 260830Z 17003KT 6000 OVC011 01/M00 Q1035 NOSIG
cycle: 8

Station Type Date Time Source
LFPO TAF 2022/01/26 07:38 UTC NOAA

TAF
AMD LFPO 260728Z 2607/2712 25003KT 6000 BKN012 PROB30
TEMPO 2607/2609 3000 BR BKN004
BECMG 2621/2624 4000 BR BKN005 PROB30
TEMPO 2622/2706 0500 FG VV///
BECMG 2706/2708 6000 NSW BKN012
BECMG 2710/2712 BKN020

Example: see airport list